Terminal Aerodrome Forecast
Issued by NWS Sioux Falls, SD

Home | Current Version | Previous Version | Text Only | Print | Product List | Glossary On
Versions: 1 2 3 4 5 6 7 8 9 10 11 12
000
FTUS43 KFSD 052320
TAFFSD
TAF
KFSD 052320Z 0600/0624 28016G25KT P6SM BKN020
     FM060400 28020G30KT P6SM BKN025
     FM062200 29019G29KT P6SM SCT025=

USA.gov is the U.S. government's official web portal to all federal, state and local government web resources and services.